createdAt,value
2023-05-21T00:00:24.326Z,16.15
2023-05-21T00:01:24.315Z,16.14
2023-05-21T00:02:24.373Z,16.14
2023-05-21T00:03:24.387Z,16.13
2023-05-21T00:04:24.326Z,16.12
2023-05-21T00:05:24.281Z,16.12
2023-05-21T00:06:24.311Z,16.11
2023-05-21T00:07:24.247Z,16.11
2023-05-21T00:08:24.275Z,16.10
2023-05-21T00:09:24.239Z,16.10
2023-05-21T00:10:24.239Z,16.10
2023-05-21T00:11:24.212Z,16.09
2023-05-21T00:12:24.219Z,16.09
2023-05-21T00:13:24.225Z,16.09
2023-05-21T00:14:24.192Z,16.09
2023-05-21T00:15:24.177Z,16.09
2023-05-21T00:16:24.232Z,16.08
2023-05-21T00:17:24.233Z,16.07
2023-05-21T00:18:24.139Z,16.07
2023-05-21T00:19:24.190Z,16.07
2023-05-21T00:20:24.118Z,16.06
2023-05-21T00:21:24.109Z,16.05
2023-05-21T00:22:24.115Z,16.04
2023-05-21T00:23:24.090Z,16.02
2023-05-21T00:24:24.096Z,16.01
2023-05-21T00:25:24.065Z,16.01
2023-05-21T00:26:24.066Z,16.00
2023-05-21T00:27:24.050Z,16.00
2023-05-21T00:28:24.033Z,16.00
2023-05-21T00:29:24.013Z,15.99
2023-05-21T00:30:24.015Z,15.99
2023-05-21T00:31:24.107Z,15.98
2023-05-21T00:32:24.069Z,15.98
2023-05-21T00:33:23.976Z,15.97
2023-05-21T00:34:23.986Z,15.97
2023-05-21T00:35:23.951Z,15.96
2023-05-21T00:36:23.954Z,15.96
2023-05-21T00:37:23.973Z,15.96
2023-05-21T00:38:23.918Z,15.95
2023-05-21T00:39:23.918Z,15.94
2023-05-21T00:40:23.902Z,15.93
2023-05-21T00:41:23.892Z,15.91
2023-05-21T00:42:23.878Z,15.88
2023-05-21T00:43:23.858Z,15.86
2023-05-21T00:44:23.880Z,15.84
2023-05-21T00:45:23.846Z,15.83
2023-05-21T00:46:23.981Z,15.82
2023-05-21T00:47:23.905Z,15.81
2023-05-21T00:48:23.802Z,15.80
2023-05-21T00:49:23.818Z,15.79
2023-05-21T00:50:23.799Z,15.77
2023-05-21T00:51:23.783Z,15.76
2023-05-21T00:52:23.773Z,15.76
2023-05-21T00:53:23.788Z,15.74
2023-05-21T00:54:23.746Z,15.73
2023-05-21T00:55:23.742Z,15.72
2023-05-21T00:56:23.713Z,15.71
2023-05-21T00:57:23.710Z,15.70
2023-05-21T00:58:23.733Z,15.68
2023-05-21T00:59:23.710Z,15.67
2023-05-21T01:00:23.674Z,15.66
2023-05-21T01:01:23.763Z,15.65
2023-05-21T01:02:23.726Z,15.64
2023-05-21T01:03:23.802Z,15.63
2023-05-21T01:04:23.661Z,15.62
2023-05-21T01:05:23.660Z,15.61
2023-05-21T01:06:23.603Z,15.60
2023-05-21T01:07:23.613Z,15.59
2023-05-21T01:08:23.626Z,15.58
2023-05-21T01:09:23.604Z,15.57
2023-05-21T01:10:23.581Z,15.57
2023-05-21T01:11:23.562Z,15.56
2023-05-21T01:12:23.556Z,15.54
2023-05-21T01:13:23.553Z,15.53
2023-05-21T01:14:23.544Z,15.53
2023-05-21T01:15:23.524Z,15.52
2023-05-21T01:16:23.525Z,15.51
2023-05-21T01:17:23.499Z,15.51
2023-05-21T01:18:23.534Z,15.50
2023-05-21T01:19:23.498Z,15.50
2023-05-21T01:20:23.464Z,15.49
2023-05-21T01:21:23.459Z,15.49
2023-05-21T01:22:23.448Z,15.48
2023-05-21T01:23:23.436Z,15.47
2023-05-21T01:24:23.438Z,15.46
2023-05-21T01:25:23.415Z,15.44
2023-05-21T01:26:23.378Z,15.43
2023-05-21T01:27:23.389Z,15.42
2023-05-21T01:28:23.393Z,15.41
2023-05-21T01:29:23.349Z,15.40
2023-05-21T01:30:23.360Z,15.38
2023-05-21T01:31:23.367Z,15.37
2023-05-21T01:32:23.329Z,15.36
2023-05-21T01:33:23.434Z,15.35
2023-05-21T01:34:23.334Z,15.33
2023-05-21T01:35:23.323Z,15.31
2023-05-21T01:36:23.281Z,15.30
2023-05-21T01:37:23.263Z,15.28
2023-05-21T01:38:23.262Z,15.26
2023-05-21T01:39:23.315Z,15.24
2023-05-21T01:40:23.244Z,15.23
2023-05-21T01:41:23.230Z,15.21
2023-05-21T01:42:23.229Z,15.20
2023-05-21T01:43:23.203Z,15.19
2023-05-21T01:44:23.223Z,15.19
2023-05-21T01:45:23.188Z,15.18
2023-05-21T01:46:23.226Z,15.16
2023-05-21T01:47:23.203Z,15.16
2023-05-21T01:48:23.168Z,15.15
2023-05-21T01:49:23.151Z,15.15
2023-05-21T01:50:23.125Z,15.15
2023-05-21T01:51:23.134Z,15.15
2023-05-21T01:52:23.106Z,15.15
2023-05-21T01:53:23.136Z,15.15
2023-05-21T01:54:23.106Z,15.15
2023-05-21T01:55:23.079Z,15.15
2023-05-21T01:56:23.114Z,15.15
2023-05-21T01:57:23.050Z,15.14
2023-05-21T01:58:23.037Z,15.14
2023-05-21T01:59:23.048Z,15.13
2023-05-21T02:00:23.031Z,15.12
2023-05-21T02:01:23.034Z,15.11
2023-05-21T02:02:23.006Z,15.10
2023-05-21T02:03:23.136Z,15.09
2023-05-21T02:04:22.998Z,15.09
2023-05-21T02:05:22.983Z,15.09
2023-05-21T02:06:22.969Z,15.09
2023-05-21T02:07:22.957Z,15.08
2023-05-21T02:08:22.928Z,15.07
2023-05-21T02:09:22.961Z,15.06
2023-05-21T02:10:22.932Z,15.04
2023-05-21T02:11:22.909Z,15.03
2023-05-21T02:12:22.898Z,15.02
2023-05-21T02:13:25.773Z,15.01
2023-05-21T02:14:22.880Z,15.01
2023-05-21T02:15:22.868Z,15.00
2023-05-21T02:16:22.919Z,15.00
2023-05-21T02:17:22.835Z,15.00
2023-05-21T02:18:22.826Z,15.00
2023-05-21T02:19:22.859Z,14.99
2023-05-21T02:20:22.912Z,14.99
2023-05-21T02:21:22.795Z,14.99
2023-05-21T02:22:22.813Z,14.98
2023-05-21T02:23:22.775Z,14.98
2023-05-21T02:24:22.774Z,14.97
2023-05-21T02:25:22.781Z,14.97
2023-05-21T02:26:22.751Z,14.96
2023-05-21T02:27:22.748Z,14.95
2023-05-21T02:28:22.721Z,14.94
2023-05-21T02:29:22.723Z,14.93
2023-05-21T02:30:22.722Z,14.93
2023-05-21T02:31:22.695Z,14.92
2023-05-21T02:32:22.725Z,14.90
2023-05-21T02:33:22.692Z,14.89
2023-05-21T02:34:22.840Z,14.88
2023-05-21T02:35:22.659Z,14.87
2023-05-21T02:36:22.690Z,14.86
2023-05-21T02:37:22.638Z,14.85
2023-05-21T02:38:22.611Z,14.85
2023-05-21T02:39:22.600Z,14.84
2023-05-21T02:40:22.636Z,14.82
2023-05-21T02:41:22.571Z,14.81
2023-05-21T02:42:22.573Z,14.80
2023-05-21T02:43:22.594Z,14.79
2023-05-21T02:44:22.547Z,14.78
2023-05-21T02:45:22.546Z,14.77
2023-05-21T02:46:22.600Z,14.76
2023-05-21T02:47:22.512Z,14.75
2023-05-21T02:48:22.484Z,14.75
2023-05-21T02:49:22.502Z,14.74
2023-05-21T02:50:22.519Z,14.74
2023-05-21T02:51:22.471Z,14.73
2023-05-21T02:52:22.468Z,14.72
2023-05-21T02:53:22.464Z,14.71
2023-05-21T02:54:22.520Z,14.70
2023-05-21T02:55:22.433Z,14.69
2023-05-21T02:56:22.416Z,14.68
2023-05-21T02:57:22.395Z,14.68
2023-05-21T02:58:22.403Z,14.67
2023-05-21T02:59:22.372Z,14.67
2023-05-21T03:00:22.404Z,14.66
2023-05-21T03:01:22.381Z,14.65
2023-05-21T03:02:22.487Z,14.65
2023-05-21T03:03:22.489Z,14.64
2023-05-21T03:04:22.310Z,14.64
2023-05-21T03:05:22.404Z,14.64
2023-05-21T03:06:22.323Z,14.63
2023-05-21T03:07:22.301Z,14.63
2023-05-21T03:08:22.282Z,14.62
2023-05-21T03:09:22.274Z,14.61
2023-05-21T03:10:22.291Z,14.60
2023-05-21T03:11:22.291Z,14.59
2023-05-21T03:12:22.245Z,14.58
2023-05-21T03:13:22.252Z,14.57
2023-05-21T03:14:22.213Z,14.56
2023-05-21T03:15:22.206Z,14.56
2023-05-21T03:16:22.459Z,14.56
2023-05-21T03:17:22.178Z,14.56
2023-05-21T03:18:22.183Z,14.55
2023-05-21T03:19:22.196Z,14.55
2023-05-21T03:20:22.149Z,14.54
2023-05-21T03:21:22.143Z,14.53
2023-05-21T03:22:22.137Z,14.52
2023-05-21T03:23:22.123Z,14.51
2023-05-21T03:24:22.123Z,14.50
2023-05-21T03:25:22.111Z,14.49
2023-05-21T03:26:22.115Z,14.48
2023-05-21T03:27:22.086Z,14.47
2023-05-21T03:28:22.054Z,14.46
2023-05-21T03:29:22.058Z,14.45
2023-05-21T03:30:22.067Z,14.44
2023-05-21T03:31:22.062Z,14.43
2023-05-21T03:32:22.060Z,14.42
2023-05-21T03:33:22.033Z,14.42
2023-05-21T03:34:21.996Z,14.42
2023-05-21T03:35:21.990Z,14.42
2023-05-21T03:36:21.986Z,14.41
2023-05-21T03:37:21.971Z,14.41
2023-05-21T03:38:21.957Z,14.40
2023-05-21T03:39:21.968Z,14.40
2023-05-21T03:40:21.982Z,14.40
2023-05-21T03:41:21.963Z,14.39
2023-05-21T03:42:21.910Z,14.39
2023-05-21T03:43:21.910Z,14.40
2023-05-21T03:44:21.898Z,14.40
2023-05-21T03:45:21.917Z,14.40
2023-05-21T03:46:21.923Z,14.40
2023-05-21T03:47:21.902Z,14.40
2023-05-21T03:48:21.842Z,14.40
2023-05-21T03:49:21.852Z,14.39
2023-05-21T03:50:21.815Z,14.38
2023-05-21T03:51:21.828Z,14.38
2023-05-21T03:52:21.841Z,14.37
2023-05-21T03:53:21.781Z,14.36
2023-05-21T03:54:21.793Z,14.35
2023-05-21T03:55:21.782Z,14.34
2023-05-21T03:56:21.767Z,14.33
2023-05-21T03:57:21.769Z,14.33
2023-05-21T03:58:21.732Z,14.33
2023-05-21T03:59:21.748Z,14.33
2023-05-21T04:00:21.710Z,14.33
2023-05-21T04:01:21.715Z,14.33
2023-05-21T04:02:21.776Z,14.33
2023-05-21T04:03:21.783Z,14.33
2023-05-21T04:04:21.723Z,14.33
2023-05-21T04:05:21.663Z,14.33
2023-05-21T04:06:21.638Z,14.33
2023-05-21T04:07:21.662Z,14.34
2023-05-21T04:08:21.622Z,14.34
2023-05-21T04:09:21.634Z,14.34
2023-05-21T04:10:21.609Z,14.33
2023-05-21T04:11:21.602Z,14.33
2023-05-21T04:12:21.584Z,14.32
2023-05-21T04:13:21.588Z,14.32
2023-05-21T04:14:21.553Z,14.31
2023-05-21T04:15:21.577Z,14.31
2023-05-21T04:16:21.610Z,14.31
2023-05-21T04:17:21.571Z,14.30
2023-05-21T04:18:21.539Z,14.30
2023-05-21T04:19:21.595Z,14.29
2023-05-21T04:20:21.488Z,14.28
2023-05-21T04:21:21.477Z,14.28
2023-05-21T04:22:21.467Z,14.27
2023-05-21T04:23:21.487Z,14.27
2023-05-21T04:24:21.439Z,14.26
2023-05-21T04:25:21.455Z,14.26
2023-05-21T04:26:21.430Z,14.26
2023-05-21T04:27:21.433Z,14.27
2023-05-21T04:28:21.425Z,14.27
2023-05-21T04:29:21.408Z,14.28
2023-05-21T04:30:21.393Z,14.28
2023-05-21T04:31:21.428Z,14.29
2023-05-21T04:32:21.405Z,14.29
2023-05-21T04:33:21.374Z,14.29
2023-05-21T04:34:21.345Z,14.29
2023-05-21T04:35:21.339Z,14.28
2023-05-21T04:36:21.313Z,14.28
2023-05-21T04:37:21.315Z,14.28
2023-05-21T04:38:21.317Z,14.27
2023-05-21T04:39:21.311Z,14.26
2023-05-21T04:40:21.294Z,14.26
2023-05-21T04:41:21.281Z,14.26
2023-05-21T04:42:21.260Z,14.26
2023-05-21T04:43:21.272Z,14.26
2023-05-21T04:44:21.225Z,14.27
2023-05-21T04:45:21.270Z,14.27
2023-05-21T04:46:21.250Z,14.28
2023-05-21T04:47:21.232Z,14.28
2023-05-21T04:48:21.198Z,14.28
2023-05-21T04:49:21.164Z,14.28
2023-05-21T04:50:21.166Z,14.29
2023-05-21T04:51:21.155Z,14.29
2023-05-21T04:52:21.144Z,14.30
2023-05-21T04:53:21.148Z,14.30
2023-05-21T04:54:21.128Z,14.31
2023-05-21T04:55:21.109Z,14.32
2023-05-21T04:56:21.091Z,14.33
2023-05-21T04:57:21.083Z,14.34
2023-05-21T04:58:21.103Z,14.35
2023-05-21T04:59:21.065Z,14.36
2023-05-21T05:00:21.065Z,14.37
2023-05-21T05:01:21.133Z,14.37
2023-05-21T05:02:21.041Z,14.37
2023-05-21T05:03:21.090Z,14.37
2023-05-21T05:04:21.018Z,14.37
2023-05-21T05:05:21.028Z,14.37
2023-05-21T05:06:20.979Z,14.37
2023-05-21T05:07:20.982Z,14.37
2023-05-21T05:08:21.016Z,14.37
2023-05-21T05:09:20.968Z,14.37
2023-05-21T05:10:20.956Z,14.38
2023-05-21T05:11:20.935Z,14.38
2023-05-21T05:12:20.943Z,14.39
2023-05-21T05:13:20.943Z,14.40
2023-05-21T05:14:20.913Z,14.40
2023-05-21T05:15:20.930Z,14.40
2023-05-21T05:16:20.945Z,14.40
2023-05-21T05:17:20.870Z,14.40
2023-05-21T05:18:20.900Z,14.40
2023-05-21T05:19:20.913Z,14.41
2023-05-21T05:20:20.838Z,14.41
2023-05-21T05:21:20.856Z,14.42
2023-05-21T05:22:20.830Z,14.43
2023-05-21T05:23:20.817Z,14.44
2023-05-21T05:24:20.823Z,14.45
2023-05-21T05:25:20.767Z,14.46
2023-05-21T05:26:20.790Z,14.47
2023-05-21T05:27:20.765Z,14.48
2023-05-21T05:28:20.749Z,14.49
2023-05-21T05:29:20.750Z,14.50
2023-05-21T05:30:20.748Z,14.51
2023-05-21T05:31:20.788Z,14.52
2023-05-21T05:32:20.760Z,14.52
2023-05-21T05:33:20.692Z,14.52
2023-05-21T05:34:20.690Z,14.51
2023-05-21T05:35:20.684Z,14.51
2023-05-21T05:36:20.671Z,14.51
2023-05-21T05:37:20.699Z,14.51
2023-05-21T05:38:20.638Z,14.52
2023-05-21T05:39:20.646Z,14.53
2023-05-21T05:40:20.616Z,14.54
2023-05-21T05:41:20.617Z,14.55
2023-05-21T05:42:20.593Z,14.56
2023-05-21T05:43:20.582Z,14.57
2023-05-21T05:44:20.601Z,14.59
2023-05-21T05:45:20.587Z,14.60
2023-05-21T05:46:20.564Z,14.62
2023-05-21T05:47:20.570Z,14.63
2023-05-21T05:48:20.560Z,14.64
2023-05-21T05:49:20.513Z,14.65
2023-05-21T05:50:20.486Z,14.66
2023-05-21T05:51:20.495Z,14.67
2023-05-21T05:52:20.477Z,14.69
2023-05-21T05:53:20.486Z,14.70
2023-05-21T05:54:20.457Z,14.72
2023-05-21T05:55:20.456Z,14.74
2023-05-21T05:56:20.448Z,14.75
2023-05-21T05:57:20.433Z,14.76
2023-05-21T05:58:20.443Z,14.78
2023-05-21T05:59:20.405Z,14.79
2023-05-21T06:00:20.417Z,14.80
2023-05-21T06:01:20.413Z,14.81
2023-05-21T06:02:20.397Z,14.82
2023-05-21T06:03:20.499Z,14.83
2023-05-21T06:04:20.371Z,14.84
2023-05-21T06:05:20.396Z,14.86
2023-05-21T06:06:20.334Z,14.87
2023-05-21T06:07:20.314Z,14.89
2023-05-21T06:08:20.318Z,14.90
2023-05-21T06:09:20.313Z,14.92
2023-05-21T06:10:20.301Z,14.93
2023-05-21T06:11:20.295Z,14.95
2023-05-21T06:12:20.274Z,14.98
2023-05-21T06:13:20.272Z,15.00
2023-05-21T06:14:20.278Z,15.02
2023-05-21T06:15:20.226Z,15.04
2023-05-21T06:16:20.237Z,15.06
2023-05-21T06:17:20.273Z,15.09
2023-05-21T06:18:20.212Z,15.12
2023-05-21T06:19:20.295Z,15.15
2023-05-21T06:20:20.169Z,15.19
2023-05-21T06:21:20.177Z,15.21
2023-05-21T06:22:20.166Z,15.24
2023-05-21T06:23:20.123Z,15.27
2023-05-21T06:24:20.149Z,15.30
2023-05-21T06:25:20.127Z,15.34
2023-05-21T06:26:20.120Z,15.37
2023-05-21T06:27:20.119Z,15.40
2023-05-21T06:28:20.076Z,15.44
2023-05-21T06:29:20.101Z,15.47
2023-05-21T06:30:20.061Z,15.51
2023-05-21T06:31:20.070Z,15.55
2023-05-21T06:32:20.067Z,15.59
2023-05-21T06:33:20.144Z,15.63
2023-05-21T06:34:20.053Z,15.68
2023-05-21T06:35:20.028Z,15.73
2023-05-21T06:36:20.008Z,15.77
2023-05-21T06:37:19.988Z,15.81
2023-05-21T06:38:20.004Z,15.84
2023-05-21T06:39:19.970Z,15.86
2023-05-21T06:40:19.973Z,15.88
2023-05-21T06:41:19.930Z,15.90
2023-05-21T06:42:19.910Z,15.91
2023-05-21T06:43:19.922Z,15.93
2023-05-21T06:44:19.914Z,15.94
2023-05-21T06:45:19.895Z,15.96
2023-05-21T06:46:19.919Z,15.98
2023-05-21T06:47:19.889Z,16.01
2023-05-21T06:48:19.872Z,16.04
2023-05-21T06:49:19.879Z,16.07
2023-05-21T06:50:19.841Z,16.10
2023-05-21T06:51:19.837Z,16.12
2023-05-21T06:52:19.827Z,16.14
2023-05-21T06:53:19.808Z,16.16
2023-05-21T06:54:19.821Z,16.18
2023-05-21T06:55:19.796Z,16.20
2023-05-21T06:56:19.785Z,16.23
2023-05-21T06:57:19.768Z,16.26
2023-05-21T06:58:19.762Z,16.31
2023-05-21T06:59:19.761Z,16.37
2023-05-21T07:00:19.730Z,16.43
2023-05-21T07:01:19.830Z,16.47
2023-05-21T07:02:19.779Z,16.50
2023-05-21T07:03:19.830Z,16.51
2023-05-21T07:04:19.713Z,16.53
2023-05-21T07:05:19.688Z,16.55
2023-05-21T07:06:19.666Z,16.56
2023-05-21T07:07:19.686Z,16.58
2023-05-21T07:08:19.638Z,16.60
2023-05-21T07:09:19.629Z,16.64
2023-05-21T07:10:19.641Z,16.70
2023-05-21T07:11:19.614Z,16.75
2023-05-21T07:12:19.590Z,16.79
2023-05-21T07:13:19.602Z,16.81
2023-05-21T07:14:19.571Z,16.83
2023-05-21T07:15:19.584Z,16.84
2023-05-21T07:16:19.603Z,16.86
2023-05-21T07:17:19.560Z,16.89
2023-05-21T07:18:19.536Z,16.91
2023-05-21T07:19:19.645Z,16.94
2023-05-21T07:20:19.540Z,16.97
2023-05-21T07:21:19.503Z,17.00
2023-05-21T07:22:19.481Z,17.05
2023-05-21T07:23:19.503Z,17.09
2023-05-21T07:24:19.485Z,17.13
2023-05-21T07:25:19.448Z,17.18
2023-05-21T07:26:19.490Z,17.25
2023-05-21T07:28:20.435Z,17.45
2023-05-21T07:29:19.419Z,17.55
2023-05-21T07:30:19.418Z,17.66
2023-05-21T07:31:19.473Z,17.76
2023-05-21T07:32:19.420Z,17.83
2023-05-21T07:33:19.366Z,17.91
2023-05-21T07:34:19.367Z,18.00
2023-05-21T07:35:19.353Z,18.08
2023-05-21T07:36:19.359Z,18.16
2023-05-21T07:37:19.379Z,18.25
2023-05-21T07:38:19.332Z,18.33
2023-05-21T07:39:19.327Z,18.39
2023-05-21T07:40:19.292Z,18.45
2023-05-21T07:41:19.326Z,18.51
2023-05-21T07:42:26.288Z,18.58
2023-05-21T07:43:19.300Z,18.66
2023-05-21T07:44:19.246Z,18.75
2023-05-21T07:45:19.276Z,18.84
2023-05-21T07:46:19.268Z,18.91
2023-05-21T07:47:19.247Z,18.97
2023-05-21T07:48:19.203Z,19.05
2023-05-21T07:49:19.199Z,19.12
2023-05-21T07:50:19.198Z,19.18
2023-05-21T07:51:19.198Z,19.21
2023-05-21T07:52:19.225Z,19.22
2023-05-21T07:53:19.185Z,19.21
2023-05-21T07:54:19.144Z,19.21
2023-05-21T07:55:19.137Z,19.21
2023-05-21T07:56:19.122Z,19.22
2023-05-21T07:57:19.149Z,19.26
2023-05-21T07:58:19.127Z,19.32
2023-05-21T07:59:19.091Z,19.40
2023-05-21T08:00:19.110Z,19.48
2023-05-21T08:01:19.085Z,19.57
2023-05-21T08:02:19.147Z,19.65
2023-05-21T08:03:19.197Z,19.72
2023-05-21T08:04:19.256Z,19.80
2023-05-21T08:05:19.121Z,19.86
2023-05-21T08:06:19.008Z,19.91
2023-05-21T08:07:19.029Z,19.94
2023-05-21T08:08:19.003Z,19.97
2023-05-21T08:09:18.983Z,20.01
2023-05-21T08:10:19.512Z,20.05
2023-05-21T08:11:18.967Z,20.08
2023-05-21T08:12:18.982Z,20.12
2023-05-21T08:13:18.955Z,20.15
2023-05-21T08:14:18.940Z,20.18
2023-05-21T08:15:19.024Z,20.19
2023-05-21T08:16:19.067Z,20.19
2023-05-21T08:17:18.901Z,20.18
2023-05-21T08:18:18.939Z,20.18
2023-05-21T08:19:19.000Z,20.18
2023-05-21T08:20:18.932Z,20.19
2023-05-21T08:21:18.850Z,20.19
2023-05-21T08:22:18.872Z,20.18
2023-05-21T08:23:18.835Z,20.17
2023-05-21T08:24:18.830Z,20.13
2023-05-21T08:25:18.808Z,20.09
2023-05-21T08:26:18.798Z,20.04
2023-05-21T08:27:18.818Z,19.99
2023-05-21T08:28:18.771Z,19.95
2023-05-21T08:29:18.764Z,19.91
2023-05-21T08:30:18.754Z,19.87
2023-05-21T08:31:18.795Z,19.85
2023-05-21T08:32:18.751Z,19.85
2023-05-21T08:33:20.956Z,19.85
2023-05-21T08:34:18.744Z,19.84
2023-05-21T08:35:18.700Z,19.83
2023-05-21T08:36:18.697Z,19.82
2023-05-21T08:37:18.716Z,19.81
2023-05-21T08:38:18.680Z,19.79
2023-05-21T08:39:18.656Z,19.76
2023-05-21T08:40:18.665Z,19.72
2023-05-21T08:41:18.644Z,19.70
2023-05-21T08:42:32.888Z,19.70
2023-05-21T08:43:19.616Z,19.71
2023-05-21T08:44:18.599Z,19.71
2023-05-21T08:45:18.594Z,19.69
2023-05-21T08:46:18.667Z,19.66
2023-05-21T08:47:18.615Z,19.64
2023-05-21T08:48:18.579Z,19.61
2023-05-21T08:49:18.558Z,19.61
2023-05-21T08:50:18.556Z,19.63
2023-05-21T08:51:18.587Z,19.63
2023-05-21T08:52:18.583Z,19.65
2023-05-21T08:53:27.314Z,19.74
2023-05-21T08:54:19.550Z,19.87
2023-05-21T08:55:18.540Z,19.96
2023-05-21T08:56:18.529Z,20.03
2023-05-21T08:57:18.469Z,20.07
2023-05-21T08:58:18.454Z,20.09
2023-05-21T08:59:18.447Z,20.12
2023-05-21T09:00:18.435Z,20.17
2023-05-21T09:01:18.462Z,20.22
2023-05-21T09:02:18.576Z,20.26
2023-05-21T09:03:18.558Z,20.27
2023-05-21T09:04:20.728Z,20.25
2023-05-21T09:05:18.402Z,20.21
2023-05-21T09:06:18.384Z,20.16
2023-05-21T09:07:18.393Z,20.12
2023-05-21T09:08:18.379Z,20.07
2023-05-21T09:09:18.351Z,20.04
2023-05-21T09:10:18.395Z,20.04
2023-05-21T09:11:18.356Z,20.06
2023-05-21T09:12:18.326Z,20.10
2023-05-21T09:13:18.317Z,20.18
2023-05-21T09:14:18.289Z,20.28
2023-05-21T09:15:18.292Z,20.34
2023-05-21T09:16:18.330Z,20.37
2023-05-21T09:17:18.247Z,20.35
2023-05-21T09:18:18.270Z,20.33
2023-05-21T09:19:18.276Z,20.32
2023-05-21T09:20:18.249Z,20.30
2023-05-21T09:21:18.234Z,20.28
2023-05-21T09:22:18.203Z,20.27
2023-05-21T09:23:18.249Z,20.29
2023-05-21T09:24:18.169Z,20.32
2023-05-21T09:25:18.212Z,20.35
2023-05-21T09:26:18.166Z,20.39
2023-05-21T09:27:18.137Z,20.45
2023-05-21T09:28:18.174Z,20.50
2023-05-21T09:29:18.141Z,20.54
2023-05-21T09:30:18.121Z,20.55
2023-05-21T09:31:18.155Z,20.55
2023-05-21T09:32:18.094Z,20.53
2023-05-21T09:33:18.106Z,20.49
2023-05-21T09:34:18.088Z,20.46
2023-05-21T09:35:18.080Z,20.42
2023-05-21T09:36:18.085Z,20.40
2023-05-21T09:37:26.997Z,20.44
2023-05-21T09:38:19.028Z,20.52
2023-05-21T09:39:18.054Z,20.61
2023-05-21T09:40:17.985Z,20.67
2023-05-21T09:41:21.169Z,20.71
2023-05-21T09:42:17.986Z,20.72
2023-05-21T09:43:17.965Z,20.70
2023-05-21T09:44:17.979Z,20.66
2023-05-21T09:45:17.985Z,20.62
2023-05-21T09:46:17.996Z,20.60
2023-05-21T09:47:17.943Z,20.58
2023-05-21T09:48:17.957Z,20.55
2023-05-21T09:49:17.898Z,20.53
2023-05-21T09:50:17.948Z,20.51
2023-05-21T09:51:17.901Z,20.48
2023-05-21T09:52:17.876Z,20.45
2023-05-21T09:53:17.887Z,20.44
2023-05-21T09:54:17.852Z,20.46
2023-05-21T09:55:17.973Z,20.48
2023-05-21T09:56:17.844Z,20.49
2023-05-21T09:57:17.819Z,20.51
2023-05-21T09:58:17.961Z,20.53
2023-05-21T09:59:17.787Z,20.56
2023-05-21T10:00:17.802Z,20.56
2023-05-21T10:01:17.824Z,20.55
2023-05-21T10:02:17.931Z,20.53
2023-05-21T10:03:17.967Z,20.53
2023-05-21T10:04:17.778Z,20.57
2023-05-21T10:05:17.732Z,20.62
2023-05-21T10:06:17.713Z,20.69
2023-05-21T10:07:17.712Z,20.80
2023-05-21T10:08:17.776Z,20.93
2023-05-21T10:09:17.716Z,21.02
2023-05-21T10:10:17.739Z,21.09
2023-05-21T10:11:17.701Z,21.12
2023-05-21T10:12:17.666Z,21.12
2023-05-21T10:13:17.681Z,21.11
2023-05-21T10:14:17.640Z,21.09
2023-05-21T10:15:17.609Z,21.18
2023-05-21T10:16:17.684Z,21.33
2023-05-21T10:17:17.585Z,21.45
2023-05-21T10:18:17.589Z,21.57
2023-05-21T10:19:17.710Z,21.77
2023-05-21T10:20:17.593Z,21.98
2023-05-21T10:21:17.542Z,22.16
2023-05-21T10:22:17.547Z,22.28
2023-05-21T10:23:17.538Z,22.32
2023-05-21T10:24:17.613Z,22.28
2023-05-21T10:25:17.540Z,22.21
2023-05-21T10:26:17.510Z,22.11
2023-05-21T10:27:17.533Z,22.00
2023-05-21T10:28:17.470Z,21.89
2023-05-21T10:29:19.563Z,21.80
2023-05-21T10:30:17.449Z,21.71
2023-05-21T10:31:17.460Z,21.63
2023-05-21T10:32:17.436Z,21.55
2023-05-21T10:33:17.519Z,21.47
2023-05-21T10:34:17.454Z,21.41
2023-05-21T10:35:17.407Z,21.34
2023-05-21T10:36:17.407Z,21.27
2023-05-21T10:37:17.396Z,21.20
2023-05-21T10:38:17.372Z,21.15
2023-05-21T10:39:17.401Z,21.13
2023-05-21T10:40:17.371Z,21.10
2023-05-21T10:41:17.342Z,21.08
2023-05-21T10:42:17.329Z,21.06
2023-05-21T10:43:17.318Z,21.04
2023-05-21T10:44:17.318Z,21.02
2023-05-21T10:45:17.313Z,21.00
2023-05-21T10:46:17.393Z,21.07
2023-05-21T10:47:17.258Z,21.21
2023-05-21T10:48:17.301Z,21.39
2023-05-21T10:49:17.280Z,21.64
2023-05-21T10:50:17.267Z,21.86
2023-05-21T10:51:17.231Z,22.00
2023-05-21T10:52:17.213Z,22.04
2023-05-21T10:53:17.196Z,22.01
2023-05-21T10:54:17.232Z,21.95
2023-05-21T10:55:17.192Z,21.85
2023-05-21T10:56:17.165Z,21.75
2023-05-21T10:57:17.169Z,21.65
2023-05-21T10:58:17.139Z,21.54
2023-05-21T10:59:17.154Z,21.44
2023-05-21T11:00:17.125Z,21.35
2023-05-21T11:01:17.166Z,21.25
2023-05-21T11:02:17.137Z,21.17
2023-05-21T11:03:17.197Z,21.09
2023-05-21T11:04:17.097Z,21.03
2023-05-21T11:05:17.065Z,20.96
2023-05-21T11:06:17.096Z,20.94
2023-05-21T11:07:17.054Z,21.01
2023-05-21T11:08:17.030Z,21.09
2023-05-21T11:09:17.056Z,21.13
2023-05-21T11:10:17.021Z,21.14
2023-05-21T11:11:17.012Z,21.12
2023-05-21T11:12:16.991Z,21.09
2023-05-21T11:13:16.999Z,21.07
2023-05-21T11:14:17.088Z,21.12
2023-05-21T11:15:16.975Z,21.19
2023-05-21T11:16:16.951Z,21.31
2023-05-21T11:17:17.170Z,21.50
2023-05-21T11:18:16.956Z,21.68
2023-05-21T11:19:16.990Z,21.81
2023-05-21T11:20:16.912Z,21.92
2023-05-21T11:21:16.939Z,22.05
2023-05-21T11:22:16.877Z,22.19
2023-05-21T11:23:16.885Z,22.37
2023-05-21T11:24:16.906Z,22.58
2023-05-21T11:25:16.845Z,22.76
2023-05-21T11:26:16.838Z,22.88
2023-05-21T11:27:16.836Z,22.91
2023-05-21T11:28:16.827Z,22.87
2023-05-21T11:29:16.824Z,22.78
2023-05-21T11:30:16.866Z,22.70
2023-05-21T11:31:16.834Z,22.60
2023-05-21T11:32:16.782Z,22.47
2023-05-21T11:33:16.768Z,22.33
2023-05-21T11:34:16.828Z,22.18
2023-05-21T11:35:16.771Z,22.04
2023-05-21T11:36:16.789Z,21.90
2023-05-21T11:37:16.730Z,21.77
2023-05-21T11:38:16.742Z,21.66
2023-05-21T11:39:16.701Z,21.66
2023-05-21T11:40:16.702Z,21.83
2023-05-21T11:41:16.680Z,22.02
2023-05-21T11:42:16.656Z,22.13
2023-05-21T11:43:16.652Z,22.19
2023-05-21T11:44:16.643Z,22.21
2023-05-21T11:45:16.657Z,22.20
2023-05-21T11:46:16.630Z,22.15
2023-05-21T11:47:16.625Z,22.08
2023-05-21T11:48:16.588Z,21.98
2023-05-21T11:49:16.634Z,21.89
2023-05-21T11:50:16.599Z,21.80
2023-05-21T11:51:16.587Z,21.73
2023-05-21T11:52:16.548Z,21.68
2023-05-21T11:53:16.534Z,21.65
2023-05-21T11:54:16.519Z,21.63
2023-05-21T11:55:16.525Z,21.62
2023-05-21T11:56:16.526Z,21.68
2023-05-21T11:57:16.509Z,21.79
2023-05-21T11:58:16.640Z,21.85
2023-05-21T11:59:18.712Z,21.86
2023-05-21T12:00:16.474Z,21.82
2023-05-21T12:01:16.488Z,21.77
2023-05-21T12:02:16.432Z,21.75
2023-05-21T12:03:16.451Z,21.74
2023-05-21T12:04:16.434Z,21.75
2023-05-21T12:05:16.417Z,21.75
2023-05-21T12:06:16.412Z,21.74
2023-05-21T12:07:16.407Z,21.73
2023-05-21T12:08:16.361Z,21.68
2023-05-21T12:09:16.381Z,21.63
2023-05-21T12:10:16.385Z,21.60
2023-05-21T12:11:16.351Z,21.58
2023-05-21T12:12:16.368Z,21.56
2023-05-21T12:13:16.359Z,21.53
2023-05-21T12:14:16.369Z,21.50
2023-05-21T12:15:16.322Z,21.45
2023-05-21T12:16:16.297Z,21.42
2023-05-21T12:17:16.284Z,21.42
2023-05-21T12:18:16.258Z,21.44
2023-05-21T12:19:16.349Z,21.45
2023-05-21T12:20:16.268Z,21.47
2023-05-21T12:21:16.216Z,21.60
2023-05-21T12:22:16.215Z,21.79
2023-05-21T12:23:16.326Z,22.01
2023-05-21T12:24:16.192Z,22.26
2023-05-21T12:25:16.242Z,22.50
2023-05-21T12:26:16.190Z,22.72
2023-05-21T12:27:16.169Z,22.90
2023-05-21T12:28:16.151Z,23.06
2023-05-21T12:29:16.158Z,23.16
2023-05-21T12:30:16.160Z,23.20
2023-05-21T12:31:16.171Z,23.22
2023-05-21T12:32:16.158Z,23.29
2023-05-21T12:33:16.113Z,23.42
2023-05-21T12:34:16.084Z,23.52
2023-05-21T12:35:16.132Z,23.55
2023-05-21T12:36:16.060Z,23.58
2023-05-21T12:37:16.108Z,23.67
2023-05-21T12:38:16.050Z,23.80
2023-05-21T12:39:16.039Z,23.89
2023-05-21T12:40:16.030Z,23.89
2023-05-21T12:41:16.021Z,23.79
2023-05-21T12:42:16.033Z,23.66
2023-05-21T12:43:15.997Z,23.55
2023-05-21T12:44:15.988Z,23.45
2023-05-21T12:45:15.980Z,23.34
2023-05-21T12:46:16.034Z,23.21
2023-05-21T12:47:15.990Z,23.09
2023-05-21T12:48:15.931Z,22.98
2023-05-21T12:49:15.939Z,22.89
2023-05-21T12:50:15.933Z,22.81
2023-05-21T12:51:15.911Z,22.75
2023-05-21T12:52:15.892Z,22.68
2023-05-21T12:53:15.901Z,22.65